sensor_id;sensor_type;location;lat;lon;timestamp;pressure;altitude;pressure_sealevel;temperature;humidity
14800;BME280;7491;57.750;11.970;2024-01-16T01:23:38;77986.56;;;-142.11;100.00
14800;BME280;7491;57.750;11.970;2024-01-16T09:48:12;78306.81;;;-142.11;100.00
14800;BME280;7491;57.750;11.970;2024-01-16T09:50:46;78286.41;;;-142.11;100.00
14800;BME280;7491;57.750;11.970;2024-01-16T09:53:13;78268.03;;;-142.11;100.00
14800;BME280;7491;57.750;11.970;2024-01-16T09:55:53;78249.69;;;-142.11;100.00
14800;BME280;7491;57.750;11.970;2024-01-16T10:09:26;78149.75;;;-142.11;100.00
14800;BME280;7491;57.750;11.970;2024-01-16T10:12:40;78133.44;;;-142.11;100.00
14800;BME280;7491;57.750;11.970;2024-01-16T10:15:39;78111.00;;;-142.11;100.00
14800;BME280;7491;57.750;11.970;2024-01-16T10:36:03;78011.03;;;-142.11;100.00
14800;BME280;7491;57.750;11.970;2024-01-16T10:38:31;77980.44;;;-142.11;100.00
14800;BME280;7491;57.750;11.970;2024-01-16T10:41:13;77966.19;;;-142.11;100.00
14800;BME280;7491;57.750;11.970;2024-01-16T10:44:19;77951.91;;;-142.11;100.00
14800;BME280;7491;57.750;11.970;2024-01-16T10:47:09;77953.94;;;-142.11;100.00
14800;BME280;7491;57.750;11.970;2024-01-16T10:49:58;77935.59;;;-142.11;100.00
14800;BME280;7491;57.750;11.970;2024-01-16T10:52:50;77925.38;;;-142.11;100.00
14800;BME280;7491;57.750;11.970;2024-01-16T10:59:06;77917.22;;;-142.11;100.00
14800;BME280;7491;57.750;11.970;2024-01-16T11:01:25;77921.31;;;-142.11;100.00
14800;BME280;7491;57.750;11.970;2024-01-16T11:03:53;77894.78;;;-142.11;100.00
14800;BME280;7491;57.750;11.970;2024-01-16T11:06:27;77892.75;;;-142.11;100.00
14800;BME280;7491;57.750;11.970;2024-01-16T11:08:55;77888.69;;;-142.11;100.00
14800;BME280;7491;57.750;11.970;2024-01-16T11:11:24;77902.94;;;-142.11;100.00
14800;BME280;7491;57.750;11.970;2024-01-16T11:14:11;77888.69;;;-142.11;100.00
14800;BME280;7491;57.750;11.970;2024-01-16T11:16:45;77888.69;;;-142.11;100.00
14800;BME280;7491;57.750;11.970;2024-01-16T11:19:17;77884.59;;;-142.11;100.00
14800;BME280;7491;57.750;11.970;2024-01-16T11:21:47;77880.50;;;-142.11;100.00
14800;BME280;7491;57.750;11.970;2024-01-16T11:24:15;77892.75;;;-142.11;100.00
14800;BME280;7491;57.750;11.970;2024-01-16T11:26:43;77862.16;;;-142.11;100.00
14800;BME280;7491;57.750;11.970;2024-01-16T11:29:35;77868.28;;;-142.11;100.00
14800;BME280;7491;57.750;11.970;2024-01-16T11:32:03;77858.09;;;-142.11;100.00
14800;BME280;7491;57.750;11.970;2024-01-16T11:34:52;77841.75;;;-142.11;100.00
14800;BME280;7491;57.750;11.970;2024-01-16T11:37:27;77825.44;;;-142.11;100.00
14800;BME280;7491;57.750;11.970;2024-01-16T11:40:25;77809.13;;;-142.11;100.00
14800;BME280;7491;57.750;11.970;2024-01-16T11:42:54;77784.66;;;-142.11;100.00
14800;BME280;7491;57.750;11.970;2024-01-16T11:48:25;77747.94;;;-142.11;100.00
14800;BME280;7491;57.750;11.970;2024-01-16T11:50:52;77731.63;;;-142.11;100.00
14800;BME280;7491;57.750;11.970;2024-01-16T11:53:33;77699.00;;;-142.11;100.00
14800;BME280;7491;57.750;11.970;2024-01-16T11:56:11;77672.50;;;-142.11;100.00
14800;BME280;7491;57.750;11.970;2024-01-16T11:58:45;77658.22;;;-142.11;100.00
14800;BME280;7491;57.750;11.970;2024-01-16T12:01:14;77639.88;;;-142.11;100.00
14800;BME280;7491;57.750;11.970;2024-01-16T12:03:42;77645.97;;;-142.11;100.00
14800;BME280;7491;57.750;11.970;2024-01-16T12:06:11;77625.59;;;-142.11;100.00
14800;BME280;7491;57.750;11.970;2024-01-16T12:08:42;77605.19;;;-142.11;100.00
14800;BME280;7491;57.750;11.970;2024-01-16T12:11:08;77623.53;;;-142.11;100.00
14800;BME280;7491;57.750;11.970;2024-01-16T12:13:34;77621.50;;;-142.11;100.00
14800;BME280;7491;57.750;11.970;2024-01-16T12:16:03;77609.28;;;-142.11;100.00
14800;BME280;7491;57.750;11.970;2024-01-16T12:18:30;77588.88;;;-142.11;100.00
14800;BME280;7491;57.750;11.970;2024-01-16T12:20:56;77574.59;;;-142.11;100.00
14800;BME280;7491;57.750;11.970;2024-01-16T12:23:24;77574.59;;;-142.11;100.00
14800;BME280;7491;57.750;11.970;2024-01-16T12:25:52;77554.22;;;-142.11;100.00
14800;BME280;7491;57.750;11.970;2024-01-16T12:28:20;77531.78;;;-142.11;100.00
14800;BME280;7491;57.750;11.970;2024-01-16T12:30:49;77525.66;;;-142.11;100.00
14800;BME280;7491;57.750;11.970;2024-01-16T12:33:21;77501.19;;;-142.11;100.00
14800;BME280;7491;57.750;11.970;2024-01-16T12:35:48;77480.78;;;-142.11;100.00
14800;BME280;7491;57.750;11.970;2024-01-16T12:38:15;77476.72;;;-142.11;100.00
14800;BME280;7491;57.750;11.970;2024-01-16T12:40:44;77466.50;;;-142.11;100.00
14800;BME280;7491;57.750;11.970;2024-01-16T12:43:13;77458.34;;;-142.11;100.00
14800;BME280;7491;57.750;11.970;2024-01-16T12:45:39;77440.00;;;-142.11;100.00
14800;BME280;7491;57.750;11.970;2024-01-16T12:48:06;77431.84;;;-142.11;100.00
14800;BME280;7491;57.750;11.970;2024-01-16T12:50:34;77423.69;;;-142.11;100.00
14800;BME280;7491;57.750;11.970;2024-01-16T12:53:03;77417.56;;;-142.11;100.00
14800;BME280;7491;57.750;11.970;2024-01-16T12:55:30;77407.38;;;-142.11;100.00
14800;BME280;7491;57.750;11.970;2024-01-16T12:58:14;77393.09;;;-142.11;100.00
14800;BME280;7491;57.750;11.970;2024-01-16T13:00:40;77393.09;;;-142.11;100.00
14800;BME280;7491;57.750;11.970;2024-01-16T13:03:07;77387.00;;;-142.11;100.00
14800;BME280;7491;57.750;11.970;2024-01-16T13:05:35;77382.91;;;-142.11;100.00
14800;BME280;7491;57.750;11.970;2024-01-16T13:08:03;77391.06;;;-142.11;100.00
14800;BME280;7491;57.750;11.970;2024-01-16T13:10:28;77387.00;;;-142.11;100.00
14800;BME280;7491;57.750;11.970;2024-01-16T13:13:11;77360.47;;;-142.11;100.00
14800;BME280;7491;57.750;11.970;2024-01-16T13:15:38;77370.66;;;-142.11;100.00
14800;BME280;7491;57.750;11.970;2024-01-16T13:18:05;77370.66;;;-142.11;100.00
14800;BME280;7491;57.750;11.970;2024-01-16T13:20:32;77376.78;;;-142.11;100.00
14800;BME280;7491;57.750;11.970;2024-01-16T13:23:00;77368.63;;;-142.11;100.00
14800;BME280;7491;57.750;11.970;2024-01-16T13:25:27;77360.47;;;-142.11;100.00
14800;BME280;7491;57.750;11.970;2024-01-16T13:27:53;77368.63;;;-142.11;100.00
14800;BME280;7491;57.750;11.970;2024-01-16T13:30:20;77354.34;;;-142.11;100.00
14800;BME280;7491;57.750;11.970;2024-01-16T13:32:47;77370.66;;;-142.11;100.00
14800;BME280;7491;57.750;11.970;2024-01-16T13:35:14;77352.31;;;-142.11;100.00
14800;BME280;7491;57.750;11.970;2024-01-16T13:37:40;77350.28;;;-142.11;100.00
14800;BME280;7491;57.750;11.970;2024-01-16T13:40:08;77338.03;;;-142.11;100.00
14800;BME280;7491;57.750;11.970;2024-01-16T13:42:38;77342.13;;;-142.11;100.00
14800;BME280;7491;57.750;11.970;2024-01-16T13:45:05;77319.69;;;-142.11;100.00
14800;BME280;7491;57.750;11.970;2024-01-16T13:47:33;77329.88;;;-142.11;100.00
14800;BME280;7491;57.750;11.970;2024-01-16T13:50:05;77317.66;;;-142.11;100.00
14800;BME280;7491;57.750;11.970;2024-01-16T13:52:31;77295.22;;;-142.11;100.00
14800;BME280;7491;57.750;11.970;2024-01-16T13:54:58;77301.34;;;-142.11;100.00
14800;BME280;7491;57.750;11.970;2024-01-16T13:57:28;77297.25;;;-142.11;100.00
14800;BME280;7491;57.750;11.970;2024-01-16T13:59:55;77280.94;;;-142.11;100.00
14800;BME280;7491;57.750;11.970;2024-01-16T14:02:22;77248.31;;;-142.11;100.00
14800;BME280;7491;57.750;11.970;2024-01-16T14:04:48;77246.28;;;-142.11;100.00
14800;BME280;7491;57.750;11.970;2024-01-16T14:07:15;77238.13;;;-142.11;100.00
14800;BME280;7491;57.750;11.970;2024-01-16T14:09:42;77223.84;;;-142.11;100.00
14800;BME280;7491;57.750;11.970;2024-01-16T14:12:08;77213.66;;;-142.11;100.00
14800;BME280;7491;57.750;11.970;2024-01-16T14:14:38;77211.63;;;-142.11;100.00
14800;BME280;7491;57.750;11.970;2024-01-16T14:17:06;77197.34;;;-142.11;100.00
14800;BME280;7491;57.750;11.970;2024-01-16T14:19:34;77199.38;;;-142.11;100.00
14800;BME280;7491;57.750;11.970;2024-01-16T14:22:01;77183.06;;;-142.11;100.00
14800;BME280;7491;57.750;11.970;2024-01-16T14:24:27;77176.94;;;-142.11;100.00
14800;BME280;7491;57.750;11.970;2024-01-16T14:26:54;77170.84;;;-142.11;100.00
14800;BME280;7491;57.750;11.970;2024-01-16T14:29:22;77162.69;;;-142.11;100.00
14800;BME280;7491;57.750;11.970;2024-01-16T14:31:50;77172.88;;;-142.11;100.00
14800;BME280;7491;57.750;11.970;2024-01-16T14:34:17;77156.56;;;-142.11;100.00
14800;BME280;7491;57.750;11.970;2024-01-16T14:36:44;77156.56;;;-142.11;100.00
14800;BME280;7491;57.750;11.970;2024-01-16T14:39:11;77150.44;;;-142.11;100.00
14800;BME280;7491;57.750;11.970;2024-01-16T14:41:42;77130.06;;;-142.11;100.00
14800;BME280;7491;57.750;11.970;2024-01-16T14:44:09;77125.97;;;-142.11;100.00
14800;BME280;7491;57.750;11.970;2024-01-16T14:46:36;77117.81;;;-142.11;100.00
14800;BME280;7491;57.750;11.970;2024-01-16T14:49:04;77115.78;;;-142.11;100.00
14800;BME280;7491;57.750;11.970;2024-01-16T14:51:31;77115.78;;;-142.11;100.00
14800;BME280;7491;57.750;11.970;2024-01-16T14:53:57;77107.63;;;-142.11;100.00
14800;BME280;7491;57.750;11.970;2024-01-16T14:56:26;77115.78;;;-142.11;100.00
14800;BME280;7491;57.750;11.970;2024-01-16T14:58:53;77097.44;;;-142.11;100.00
14800;BME280;7491;57.750;11.970;2024-01-16T15:01:20;77087.22;;;-142.11;100.00
14800;BME280;7491;57.750;11.970;2024-01-16T15:03:46;77085.19;;;-142.11;100.00
14800;BME280;7491;57.750;11.970;2024-01-16T15:06:15;77085.19;;;-142.11;100.00
14800;BME280;7491;57.750;11.970;2024-01-16T15:08:42;77070.91;;;-142.11;100.00
14800;BME280;7491;57.750;11.970;2024-01-16T15:11:09;77072.97;;;-142.11;100.00
14800;BME280;7491;57.750;11.970;2024-01-16T15:13:36;77048.50;;;-142.11;100.00
14800;BME280;7491;57.750;11.970;2024-01-16T15:16:03;77050.53;;;-142.11;100.00
14800;BME280;7491;57.750;11.970;2024-01-16T15:18:30;77040.34;;;-142.11;100.00
14800;BME280;7491;57.750;11.970;2024-01-16T15:20:57;77032.19;;;-142.11;100.00
14800;BME280;7491;57.750;11.970;2024-01-16T15:23:27;77036.25;;;-142.11;100.00
14800;BME280;7491;57.750;11.970;2024-01-16T15:25:54;77032.19;;;-142.11;100.00
14800;BME280;7491;57.750;11.970;2024-01-16T15:28:25;77038.28;;;-142.11;100.00
14800;BME280;7491;57.750;11.970;2024-01-16T15:30:52;77032.19;;;-142.11;100.00
14800;BME280;7491;57.750;11.970;2024-01-16T15:33:19;77028.09;;;-142.11;100.00
14800;BME280;7491;57.750;11.970;2024-01-16T15:35:45;77026.06;;;-142.11;100.00
14800;BME280;7491;57.750;11.970;2024-01-16T15:38:12;77017.91;;;-142.11;100.00
14800;BME280;7491;57.750;11.970;2024-01-16T15:40:40;77007.72;;;-142.11;100.00
14800;BME280;7491;57.750;11.970;2024-01-16T15:43:06;77003.63;;;-142.11;100.00
14800;BME280;7491;57.750;11.970;2024-01-16T15:45:33;77003.63;;;-142.11;100.00
14800;BME280;7491;57.750;11.970;2024-01-16T15:48:00;77001.59;;;-142.11;100.00
14800;BME280;7491;57.750;11.970;2024-01-16T15:50:26;76995.47;;;-142.11;100.00
14800;BME280;7491;57.750;11.970;2024-01-16T15:52:53;76989.34;;;-142.11;100.00
14800;BME280;7491;57.750;11.970;2024-01-16T15:55:20;76983.25;;;-142.11;100.00
14800;BME280;7491;57.750;11.970;2024-01-16T15:57:48;76975.09;;;-142.11;100.00
14800;BME280;7491;57.750;11.970;2024-01-16T16:00:15;76971.00;;;-142.11;100.00
14800;BME280;7491;57.750;11.970;2024-01-16T16:02:42;76964.88;;;-142.11;100.00
14800;BME280;7491;57.750;11.970;2024-01-16T16:05:12;76958.78;;;-142.11;100.00
14800;BME280;7491;57.750;11.970;2024-01-16T16:07:39;76952.66;;;-142.11;100.00
14800;BME280;7491;57.750;11.970;2024-01-16T16:10:06;76956.75;;;-142.11;100.00
14800;BME280;7491;57.750;11.970;2024-01-16T16:12:33;76962.84;;;-142.11;100.00
14800;BME280;7491;57.750;11.970;2024-01-16T16:15:03;76950.63;;;-142.11;100.00
14800;BME280;7491;57.750;11.970;2024-01-16T16:17:30;76952.66;;;-142.11;100.00
14800;BME280;7491;57.750;11.970;2024-01-16T16:19:57;76934.31;;;-142.11;100.00
14800;BME280;7491;57.750;11.970;2024-01-16T16:22:23;76922.06;;;-142.11;100.00
14800;BME280;7491;57.750;11.970;2024-01-16T16:24:50;76911.88;;;-142.11;100.00
14800;BME280;7491;57.750;11.970;2024-01-16T16:27:22;76913.91;;;-142.11;100.00
14800;BME280;7491;57.750;11.970;2024-01-16T16:29:48;76901.69;;;-142.11;100.00
14800;BME280;7491;57.750;11.970;2024-01-16T16:32:16;76915.97;;;-142.11;100.00
14800;BME280;7491;57.750;11.970;2024-01-16T16:34:44;76897.59;;;-142.11;100.00
14800;BME280;7491;57.750;11.970;2024-01-16T16:37:11;76897.59;;;-142.11;100.00
14800;BME280;7491;57.750;11.970;2024-01-16T16:39:39;76891.50;;;-142.11;100.00
14800;BME280;7491;57.750;11.970;2024-01-16T16:42:06;76887.41;;;-142.11;100.00
14800;BME280;7491;57.750;11.970;2024-01-16T16:44:32;76883.34;;;-142.11;100.00
14800;BME280;7491;57.750;11.970;2024-01-16T16:46:59;76875.19;;;-142.11;100.00
14800;BME280;7491;57.750;11.970;2024-01-16T16:49:27;76877.22;;;-142.11;100.00
14800;BME280;7491;57.750;11.970;2024-01-16T16:51:54;76869.06;;;-142.11;100.00
14800;BME280;7491;57.750;11.970;2024-01-16T16:54:21;76869.06;;;-142.11;100.00
14800;BME280;7491;57.750;11.970;2024-01-16T16:56:47;76867.03;;;-142.11;100.00
14800;BME280;7491;57.750;11.970;2024-01-16T16:59:14;76844.59;;;-142.11;100.00
14800;BME280;7491;57.750;11.970;2024-01-16T17:01:41;76834.41;;;-142.11;100.00
14800;BME280;7491;57.750;11.970;2024-01-16T17:04:08;76836.44;;;-142.11;100.00
14800;BME280;7491;57.750;11.970;2024-01-16T17:06:36;76844.59;;;-142.11;100.00
14800;BME280;7491;57.750;11.970;2024-01-16T17:09:03;76828.28;;;-142.11;100.00
14800;BME280;7491;57.750;11.970;2024-01-16T17:11:31;76828.28;;;-142.11;100.00
14800;BME280;7491;57.750;11.970;2024-01-16T17:13:59;76842.56;;;-142.11;100.00
14800;BME280;7491;57.750;11.970;2024-01-16T17:16:25;76820.13;;;-142.11;100.00
14800;BME280;7491;57.750;11.970;2024-01-16T17:18:53;76814.00;;;-142.11;100.00
14800;BME280;7491;57.750;11.970;2024-01-16T17:21:19;76807.91;;;-142.11;100.00
14800;BME280;7491;57.750;11.970;2024-01-16T17:23:47;76801.78;;;-142.11;100.00
14800;BME280;7491;57.750;11.970;2024-01-16T17:26:14;76787.50;;;-142.11;100.00
14800;BME280;7491;57.750;11.970;2024-01-16T17:28:40;76777.31;;;-142.11;100.00
14800;BME280;7491;57.750;11.970;2024-01-16T17:31:07;76779.34;;;-142.11;100.00
14800;BME280;7491;57.750;11.970;2024-01-16T17:33:33;76769.16;;;-142.11;100.00
14800;BME280;7491;57.750;11.970;2024-01-16T17:36:00;76758.97;;;-142.11;100.00
14800;BME280;7491;57.750;11.970;2024-01-16T17:38:31;76761.00;;;-142.11;100.00
14800;BME280;7491;57.750;11.970;2024-01-16T17:40:59;76738.56;;;-142.11;100.00
14800;BME280;7491;57.750;11.970;2024-01-16T17:43:26;76734.50;;;-142.11;100.00
14800;BME280;7491;57.750;11.970;2024-01-16T17:45:53;76722.25;;;-142.11;100.00
14800;BME280;7491;57.750;11.970;2024-01-16T17:48:19;76718.19;;;-142.11;100.00
14800;BME280;7491;57.750;11.970;2024-01-16T17:50:47;76714.09;;;-142.11;100.00
14800;BME280;7491;57.750;11.970;2024-01-16T17:53:14;76714.09;;;-142.11;100.00
14800;BME280;7491;57.750;11.970;2024-01-16T17:55:40;76701.88;;;-142.11;100.00
14800;BME280;7491;57.750;11.970;2024-01-16T17:58:09;76687.59;;;-142.11;100.00
14800;BME280;7491;57.750;11.970;2024-01-16T18:00:36;76689.63;;;-142.11;100.00
14800;BME280;7491;57.750;11.970;2024-01-16T18:03:03;76679.44;;;-142.11;100.00
14800;BME280;7491;57.750;11.970;2024-01-16T18:05:31;76675.38;;;-142.11;100.00
14800;BME280;7491;57.750;11.970;2024-01-16T18:07:59;76661.09;;;-142.11;100.00
14800;BME280;7491;57.750;11.970;2024-01-16T18:10:26;76663.13;;;-142.11;100.00
14800;BME280;7491;57.750;11.970;2024-01-16T18:12:55;76652.94;;;-142.11;100.00
14800;BME280;7491;57.750;11.970;2024-01-16T18:15:23;76634.59;;;-142.11;100.00
14800;BME280;7491;57.750;11.970;2024-01-16T18:17:52;76624.41;;;-142.11;100.00
14800;BME280;7491;57.750;11.970;2024-01-16T18:20:19;76632.56;;;-142.11;100.00
14800;BME280;7491;57.750;11.970;2024-01-16T18:22:47;76620.31;;;-142.11;100.00
14800;BME280;7491;57.750;11.970;2024-01-16T18:25:16;76599.94;;;-142.11;100.00
14800;BME280;7491;57.750;11.970;2024-01-16T18:27:42;76591.78;;;-142.11;100.00
14800;BME280;7491;57.750;11.970;2024-01-16T18:30:10;76599.94;;;-142.11;100.00
14800;BME280;7491;57.750;11.970;2024-01-16T18:32:41;76583.63;;;-142.11;100.00
14800;BME280;7491;57.750;11.970;2024-01-16T18:35:08;76575.47;;;-142.11;100.00
14800;BME280;7491;57.750;11.970;2024-01-16T18:37:35;76573.44;;;-142.11;100.00
14800;BME280;7491;57.750;11.970;2024-01-16T18:40:03;76561.19;;;-142.11;100.00
14800;BME280;7491;57.750;11.970;2024-01-16T18:42:34;76555.09;;;-142.11;100.00
14800;BME280;7491;57.750;11.970;2024-01-16T18:45:00;76540.81;;;-142.11;100.00
14800;BME280;7491;57.750;11.970;2024-01-16T18:47:29;76534.69;;;-142.11;100.00
14800;BME280;7491;57.750;11.970;2024-01-16T18:49:58;76514.31;;;-142.11;100.00
14800;BME280;7491;57.750;11.970;2024-01-16T18:52:24;76510.22;;;-142.11;100.00
14800;BME280;7491;57.750;11.970;2024-01-16T18:54:51;76506.16;;;-142.11;100.00
14800;BME280;7491;57.750;11.970;2024-01-16T18:57:18;76493.91;;;-142.11;100.00
14800;BME280;7491;57.750;11.970;2024-01-16T18:59:44;76487.81;;;-142.11;100.00
14800;BME280;7491;57.750;11.970;2024-01-16T19:02:11;76473.53;;;-142.11;100.00
14800;BME280;7491;57.750;11.970;2024-01-16T19:04:39;76469.44;;;-142.11;100.00
14800;BME280;7491;57.750;11.970;2024-01-16T19:07:08;76459.25;;;-142.11;100.00
14800;BME280;7491;57.750;11.970;2024-01-16T19:09:38;76455.19;;;-142.11;100.00
14800;BME280;7491;57.750;11.970;2024-01-16T19:12:05;76432.75;;;-142.11;100.00
14800;BME280;7491;57.750;11.970;2024-01-16T19:14:32;76418.50;;;-142.11;100.00
14800;BME280;7491;57.750;11.970;2024-01-16T19:16:59;76406.25;;;-142.11;100.00
14800;BME280;7491;57.750;11.970;2024-01-16T19:19:26;76406.25;;;-142.11;100.00
14800;BME280;7491;57.750;11.970;2024-01-16T19:21:53;76381.78;;;-142.11;100.00
14800;BME280;7491;57.750;11.970;2024-01-16T19:24:24;76396.06;;;-142.11;100.00
14800;BME280;7491;57.750;11.970;2024-01-16T19:26:52;76381.78;;;-142.11;100.00
14800;BME280;7491;57.750;11.970;2024-01-16T19:29:18;76369.56;;;-142.11;100.00
14800;BME280;7491;57.750;11.970;2024-01-16T19:31:46;76373.63;;;-142.11;100.00
14800;BME280;7491;57.750;11.970;2024-01-16T19:34:12;76347.13;;;-142.11;100.00
14800;BME280;7491;57.750;11.970;2024-01-16T19:36:39;76343.06;;;-142.11;100.00
14800;BME280;7491;57.750;11.970;2024-01-16T19:39:07;76326.75;;;-142.11;100.00
14800;BME280;7491;57.750;11.970;2024-01-16T19:41:40;76338.97;;;-142.11;100.00
14800;BME280;7491;57.750;11.970;2024-01-16T19:44:08;76334.91;;;-142.11;100.00
14800;BME280;7491;57.750;11.970;2024-01-16T19:46:35;76326.75;;;-142.11;100.00
14800;BME280;7491;57.750;11.970;2024-01-16T19:49:01;76318.59;;;-142.11;100.00
14800;BME280;7491;57.750;11.970;2024-01-16T19:51:30;76322.66;;;-142.11;100.00
14800;BME280;7491;57.750;11.970;2024-01-16T19:53:59;76304.31;;;-142.11;100.00
14800;BME280;7491;57.750;11.970;2024-01-16T19:56:26;76308.41;;;-142.11;100.00
14800;BME280;7491;57.750;11.970;2024-01-16T19:58:54;76300.25;;;-142.11;100.00
14800;BME280;7491;57.750;11.970;2024-01-16T20:01:27;76288.03;;;-142.11;100.00
14800;BME280;7491;57.750;11.970;2024-01-16T20:03:54;76288.03;;;-142.11;100.00
14800;BME280;7491;57.750;11.970;2024-01-16T20:06:20;76292.09;;;-142.11;100.00
14800;BME280;7491;57.750;11.970;2024-01-16T20:08:47;76290.06;;;-142.11;100.00
14800;BME280;7491;57.750;11.970;2024-01-16T20:11:24;76271.72;;;-142.11;100.00
14800;BME280;7491;57.750;11.970;2024-01-16T20:13:52;76255.41;;;-142.11;100.00
14800;BME280;7491;57.750;11.970;2024-01-16T20:16:20;76267.63;;;-142.11;100.00
14800;BME280;7491;57.750;11.970;2024-01-16T20:18:47;76267.63;;;-142.11;100.00
14800;BME280;7491;57.750;11.970;2024-01-16T20:21:14;76257.44;;;-142.11;100.00
14800;BME280;7491;57.750;11.970;2024-01-16T20:23:40;76249.28;;;-142.11;100.00
14800;BME280;7491;57.750;11.970;2024-01-16T20:26:07;76251.31;;;-142.11;100.00
14800;BME280;7491;57.750;11.970;2024-01-16T20:28:33;76235.00;;;-142.11;100.00
14800;BME280;7491;57.750;11.970;2024-01-16T20:31:00;76237.06;;;-142.11;100.00
14800;BME280;7491;57.750;11.970;2024-01-16T20:33:28;76239.09;;;-142.11;100.00
14800;BME280;7491;57.750;11.970;2024-01-16T20:35:55;76239.09;;;-142.11;100.00
14800;BME280;7491;57.750;11.970;2024-01-16T20:38:21;76228.91;;;-142.11;100.00
14800;BME280;7491;57.750;11.970;2024-01-16T20:40:48;76243.16;;;-142.11;100.00
14800;BME280;7491;57.750;11.970;2024-01-16T20:43:15;76220.75;;;-142.11;100.00
14800;BME280;7491;57.750;11.970;2024-01-16T20:45:43;76222.78;;;-142.11;100.00
14800;BME280;7491;57.750;11.970;2024-01-16T20:48:10;76232.97;;;-142.11;100.00
14800;BME280;7491;57.750;11.970;2024-01-16T20:50:38;76210.56;;;-142.11;100.00
14800;BME280;7491;57.750;11.970;2024-01-16T20:53:05;76224.81;;;-142.11;100.00
14800;BME280;7491;57.750;11.970;2024-01-16T20:55:32;76216.66;;;-142.11;100.00
14800;BME280;7491;57.750;11.970;2024-01-16T20:58:00;76216.66;;;-142.11;100.00
14800;BME280;7491;57.750;11.970;2024-01-16T21:00:26;76208.50;;;-142.11;100.00
14800;BME280;7491;57.750;11.970;2024-01-16T21:02:59;76194.25;;;-142.11;100.00
14800;BME280;7491;57.750;11.970;2024-01-16T21:05:26;76196.28;;;-142.11;100.00
14800;BME280;7491;57.750;11.970;2024-01-16T21:07:54;76175.91;;;-142.11;100.00
14800;BME280;7491;57.750;11.970;2024-01-16T21:10:20;76175.91;;;-142.11;100.00
14800;BME280;7491;57.750;11.970;2024-01-16T21:12:47;76157.56;;;-142.11;100.00
14800;BME280;7491;57.750;11.970;2024-01-16T21:15:14;76153.47;;;-142.11;100.00
14800;BME280;7491;57.750;11.970;2024-01-16T21:17:40;76155.50;;;-142.11;100.00
14800;BME280;7491;57.750;11.970;2024-01-16T21:20:07;76133.09;;;-142.11;100.00
14800;BME280;7491;57.750;11.970;2024-01-16T21:22:34;76131.06;;;-142.11;100.00
14800;BME280;7491;57.750;11.970;2024-01-16T21:25:03;76135.13;;;-142.11;100.00
14800;BME280;7491;57.750;11.970;2024-01-16T21:27:30;76129.00;;;-142.11;100.00
14800;BME280;7491;57.750;11.970;2024-01-16T21:29:57;76106.59;;;-142.11;100.00
14800;BME280;7491;57.750;11.970;2024-01-16T21:32:23;76094.34;;;-142.11;100.00
14800;BME280;7491;57.750;11.970;2024-01-16T21:34:50;76090.28;;;-142.11;100.00
14800;BME280;7491;57.750;11.970;2024-01-16T21:37:17;76092.31;;;-142.11;100.00
14800;BME280;7491;57.750;11.970;2024-01-16T21:39:44;76071.94;;;-142.11;100.00
14800;BME280;7491;57.750;11.970;2024-01-16T21:42:12;76065.81;;;-142.11;100.00
14800;BME280;7491;57.750;11.970;2024-01-16T21:44:38;76065.81;;;-142.11;100.00
14800;BME280;7491;57.750;11.970;2024-01-16T21:47:05;76059.69;;;-142.11;100.00
14800;BME280;7491;57.750;11.970;2024-01-16T21:49:32;76051.56;;;-142.11;100.00
14800;BME280;7491;57.750;11.970;2024-01-16T21:51:59;76047.47;;;-142.11;100.00
14800;BME280;7491;57.750;11.970;2024-01-16T21:54:26;76045.44;;;-142.11;100.00
14800;BME280;7491;57.750;11.970;2024-01-16T21:56:55;76035.25;;;-142.11;100.00
14800;BME280;7491;57.750;11.970;2024-01-16T21:59:23;76033.22;;;-142.11;100.00
14800;BME280;7491;57.750;11.970;2024-01-16T22:01:50;76020.97;;;-142.11;100.00
14800;BME280;7491;57.750;11.970;2024-01-16T22:04:17;76008.75;;;-142.11;100.00
14800;BME280;7491;57.750;11.970;2024-01-16T22:06:43;75998.56;;;-142.11;100.00
14800;BME280;7491;57.750;11.970;2024-01-16T22:09:10;75994.47;;;-142.11;100.00
14800;BME280;7491;57.750;11.970;2024-01-16T22:11:39;75998.56;;;-142.11;100.00
14800;BME280;7491;57.750;11.970;2024-01-16T22:14:06;76000.59;;;-142.11;100.00
14800;BME280;7491;57.750;11.970;2024-01-16T22:16:34;75984.28;;;-142.11;100.00
14800;BME280;7491;57.750;11.970;2024-01-16T22:19:01;75974.09;;;-142.11;100.00
14800;BME280;7491;57.750;11.970;2024-01-16T22:21:28;75963.91;;;-142.11;100.00
14800;BME280;7491;57.750;11.970;2024-01-16T22:23:54;75947.59;;;-142.11;100.00
14800;BME280;7491;57.750;11.970;2024-01-16T22:26:21;75935.38;;;-142.11;100.00
14800;BME280;7491;57.750;11.970;2024-01-16T22:28:47;75919.06;;;-142.11;100.00
14800;BME280;7491;57.750;11.970;2024-01-16T22:31:14;75908.88;;;-142.11;100.00
14800;BME280;7491;57.750;11.970;2024-01-16T22:33:42;75894.59;;;-142.11;100.00
14800;BME280;7491;57.750;11.970;2024-01-16T22:36:09;75894.59;;;-142.11;100.00
14800;BME280;7491;57.750;11.970;2024-01-16T22:38:36;75839.56;;;-142.11;100.00
14800;BME280;7491;57.750;11.970;2024-01-16T22:41:03;75811.03;;;-142.11;100.00
14800;BME280;7491;57.750;11.970;2024-01-16T22:43:30;75788.59;;;-142.11;100.00
14800;BME280;7491;57.750;11.970;2024-01-16T22:45:57;75764.16;;;-142.11;100.00
14800;BME280;7491;57.750;11.970;2024-01-16T22:48:24;75749.88;;;-142.11;100.00
14800;BME280;7491;57.750;11.970;2024-01-16T22:50:52;75739.69;;;-142.11;100.00
14800;BME280;7491;57.750;11.970;2024-01-16T22:53:18;75727.44;;;-142.11;100.00
14800;BME280;7491;57.750;11.970;2024-01-16T22:55:47;75700.97;;;-142.11;100.00
14800;BME280;7491;57.750;11.970;2024-01-16T22:58:14;75692.81;;;-142.11;100.00